sensor_id;sensor_type;location;lat;lon;timestamp;P1;durP1;ratioP1;P2;durP2;ratioP2
5918;SDS011;2985;48.142;16.344;2023-06-19T00:04:56;0.10;;;0.10;;
5918;SDS011;2985;48.142;16.344;2023-06-19T00:10:06;0.10;;;0.10;;
5918;SDS011;2985;48.142;16.344;2023-06-19T00:15:15;0.10;;;0.10;;
5918;SDS011;2985;48.142;16.344;2023-06-19T00:20:25;0.10;;;0.10;;
5918;SDS011;2985;48.142;16.344;2023-06-19T00:25:35;0.10;;;0.10;;
5918;SDS011;2985;48.142;16.344;2023-06-19T00:30:45;0.10;;;0.10;;
5918;SDS011;2985;48.142;16.344;2023-06-19T00:35:54;0.10;;;0.10;;
5918;SDS011;2985;48.142;16.344;2023-06-19T00:41:04;0.10;;;0.10;;
5918;SDS011;2985;48.142;16.344;2023-06-19T00:46:14;0.10;;;0.10;;
5918;SDS011;2985;48.142;16.344;2023-06-19T00:51:24;0.10;;;0.10;;
5918;SDS011;2985;48.142;16.344;2023-06-19T00:56:34;0.10;;;0.10;;
5918;SDS011;2985;48.142;16.344;2023-06-19T01:01:45;0.10;;;0.10;;
5918;SDS011;2985;48.142;16.344;2023-06-19T01:07:05;0.10;;;0.10;;
5918;SDS011;2985;48.142;16.344;2023-06-19T01:12:22;0.10;;;0.10;;
5918;SDS011;2985;48.142;16.344;2023-06-19T01:17:32;0.10;;;0.10;;
5918;SDS011;2985;48.142;16.344;2023-06-19T01:22:42;0.10;;;0.10;;
5918;SDS011;2985;48.142;16.344;2023-06-19T01:27:55;0.10;;;0.10;;
5918;SDS011;2985;48.142;16.344;2023-06-19T01:38:19;0.10;;;0.10;;
5918;SDS011;2985;48.142;16.344;2023-06-19T01:43:29;0.10;;;0.10;;
5918;SDS011;2985;48.142;16.344;2023-06-19T01:48:40;0.10;;;0.10;;
5918;SDS011;2985;48.142;16.344;2023-06-19T01:53:49;0.10;;;0.10;;
5918;SDS011;2985;48.142;16.344;2023-06-19T01:58:59;0.10;;;0.10;;
5918;SDS011;2985;48.142;16.344;2023-06-19T02:04:09;0.10;;;0.10;;
5918;SDS011;2985;48.142;16.344;2023-06-19T02:09:18;0.10;;;0.10;;
5918;SDS011;2985;48.142;16.344;2023-06-19T02:14:28;0.10;;;0.10;;
5918;SDS011;2985;48.142;16.344;2023-06-19T02:19:38;0.10;;;0.10;;
5918;SDS011;2985;48.142;16.344;2023-06-19T02:24:47;0.10;;;0.10;;
5918;SDS011;2985;48.142;16.344;2023-06-19T02:29:57;0.10;;;0.10;;
5918;SDS011;2985;48.142;16.344;2023-06-19T02:35:08;0.10;;;0.10;;
5918;SDS011;2985;48.142;16.344;2023-06-19T02:40:18;0.10;;;0.10;;
5918;SDS011;2985;48.142;16.344;2023-06-19T02:45:28;0.10;;;0.10;;
5918;SDS011;2985;48.142;16.344;2023-06-19T02:50:38;0.10;;;0.10;;
5918;SDS011;2985;48.142;16.344;2023-06-19T02:55:47;0.10;;;0.10;;
5918;SDS011;2985;48.142;16.344;2023-06-19T03:00:57;0.10;;;0.10;;
5918;SDS011;2985;48.142;16.344;2023-06-19T03:06:07;0.10;;;0.10;;
5918;SDS011;2985;48.142;16.344;2023-06-19T03:11:17;0.10;;;0.10;;
5918;SDS011;2985;48.142;16.344;2023-06-19T03:16:27;0.10;;;0.10;;
5918;SDS011;2985;48.142;16.344;2023-06-19T03:21:37;0.10;;;0.10;;
5918;SDS011;2985;48.142;16.344;2023-06-19T03:26:47;0.10;;;0.10;;
5918;SDS011;2985;48.142;16.344;2023-06-19T03:31:56;0.10;;;0.10;;
5918;SDS011;2985;48.142;16.344;2023-06-19T03:37:06;0.10;;;0.10;;
5918;SDS011;2985;48.142;16.344;2023-06-19T03:42:15;0.10;;;0.10;;
5918;SDS011;2985;48.142;16.344;2023-06-19T03:47:25;0.10;;;0.10;;
5918;SDS011;2985;48.142;16.344;2023-06-19T03:52:36;0.10;;;0.10;;
5918;SDS011;2985;48.142;16.344;2023-06-19T03:57:45;0.10;;;0.10;;
5918;SDS011;2985;48.142;16.344;2023-06-19T04:02:55;0.10;;;0.10;;
5918;SDS011;2985;48.142;16.344;2023-06-19T04:08:05;0.10;;;0.10;;
5918;SDS011;2985;48.142;16.344;2023-06-19T04:13:14;0.10;;;0.10;;
5918;SDS011;2985;48.142;16.344;2023-06-19T04:18:24;0.10;;;0.10;;
5918;SDS011;2985;48.142;16.344;2023-06-19T04:23:36;0.10;;;0.10;;
5918;SDS011;2985;48.142;16.344;2023-06-19T04:28:45;0.10;;;0.10;;
5918;SDS011;2985;48.142;16.344;2023-06-19T04:33:55;0.10;;;0.10;;
5918;SDS011;2985;48.142;16.344;2023-06-19T04:39:05;0.10;;;0.10;;
5918;SDS011;2985;48.142;16.344;2023-06-19T04:44:15;0.10;;;0.10;;
5918;SDS011;2985;48.142;16.344;2023-06-19T04:49:25;0.10;;;0.10;;
5918;SDS011;2985;48.142;16.344;2023-06-19T04:54:34;0.10;;;0.10;;
5918;SDS011;2985;48.142;16.344;2023-06-19T04:59:44;0.10;;;0.10;;
5918;SDS011;2985;48.142;16.344;2023-06-19T05:04:54;0.10;;;0.10;;
5918;SDS011;2985;48.142;16.344;2023-06-19T05:10:04;0.10;;;0.10;;
5918;SDS011;2985;48.142;16.344;2023-06-19T05:15:14;0.10;;;0.10;;
5918;SDS011;2985;48.142;16.344;2023-06-19T05:20:23;0.10;;;0.10;;
5918;SDS011;2985;48.142;16.344;2023-06-19T05:25:33;0.10;;;0.10;;
5918;SDS011;2985;48.142;16.344;2023-06-19T05:30:43;0.10;;;0.10;;
5918;SDS011;2985;48.142;16.344;2023-06-19T05:35:53;0.10;;;0.10;;
5918;SDS011;2985;48.142;16.344;2023-06-19T05:41:03;0.10;;;0.10;;
5918;SDS011;2985;48.142;16.344;2023-06-19T05:46:12;0.10;;;0.10;;
5918;SDS011;2985;48.142;16.344;2023-06-19T05:51:22;0.10;;;0.10;;
5918;SDS011;2985;48.142;16.344;2023-06-19T05:56:32;0.10;;;0.10;;
5918;SDS011;2985;48.142;16.344;2023-06-19T06:01:42;0.10;;;0.10;;
5918;SDS011;2985;48.142;16.344;2023-06-19T06:06:52;0.10;;;0.10;;
5918;SDS011;2985;48.142;16.344;2023-06-19T06:12:02;0.10;;;0.10;;
5918;SDS011;2985;48.142;16.344;2023-06-19T06:17:11;0.10;;;0.10;;
5918;SDS011;2985;48.142;16.344;2023-06-19T06:22:21;0.10;;;0.10;;
5918;SDS011;2985;48.142;16.344;2023-06-19T06:27:31;0.10;;;0.10;;
5918;SDS011;2985;48.142;16.344;2023-06-19T06:32:41;0.10;;;0.10;;
5918;SDS011;2985;48.142;16.344;2023-06-19T06:37:50;0.10;;;0.10;;
5918;SDS011;2985;48.142;16.344;2023-06-19T06:43:00;0.10;;;0.10;;
5918;SDS011;2985;48.142;16.344;2023-06-19T06:48:10;0.10;;;0.10;;
5918;SDS011;2985;48.142;16.344;2023-06-19T06:53:20;0.10;;;0.10;;
5918;SDS011;2985;48.142;16.344;2023-06-19T06:58:29;0.10;;;0.10;;
5918;SDS011;2985;48.142;16.344;2023-06-19T07:03:39;0.00;;;0.00;;
5918;SDS011;2985;48.142;16.344;2023-06-19T07:08:49;0.10;;;0.10;;
5918;SDS011;2985;48.142;16.344;2023-06-19T07:13:58;0.10;;;0.10;;
5918;SDS011;2985;48.142;16.344;2023-06-19T07:19:08;0.10;;;0.10;;
5918;SDS011;2985;48.142;16.344;2023-06-19T07:24:18;0.10;;;0.10;;
5918;SDS011;2985;48.142;16.344;2023-06-19T07:29:28;0.10;;;0.10;;
5918;SDS011;2985;48.142;16.344;2023-06-19T07:34:37;0.10;;;0.10;;
5918;SDS011;2985;48.142;16.344;2023-06-19T07:39:48;0.00;;;0.00;;
5918;SDS011;2985;48.142;16.344;2023-06-19T07:44:58;0.10;;;0.10;;
5918;SDS011;2985;48.142;16.344;2023-06-19T07:50:08;0.10;;;0.10;;
5918;SDS011;2985;48.142;16.344;2023-06-19T07:55:18;0.10;;;0.10;;
5918;SDS011;2985;48.142;16.344;2023-06-19T08:00:28;0.10;;;0.10;;
5918;SDS011;2985;48.142;16.344;2023-06-19T08:05:37;0.10;;;0.10;;
5918;SDS011;2985;48.142;16.344;2023-06-19T08:10:47;0.10;;;0.10;;
5918;SDS011;2985;48.142;16.344;2023-06-19T08:15:57;0.10;;;0.10;;
5918;SDS011;2985;48.142;16.344;2023-06-19T08:21:07;0.10;;;0.10;;
5918;SDS011;2985;48.142;16.344;2023-06-19T08:26:16;0.10;;;0.10;;
5918;SDS011;2985;48.142;16.344;2023-06-19T08:31:26;0.10;;;0.10;;
5918;SDS011;2985;48.142;16.344;2023-06-19T08:36:37;0.00;;;0.00;;
5918;SDS011;2985;48.142;16.344;2023-06-19T08:41:47;0.10;;;0.10;;
5918;SDS011;2985;48.142;16.344;2023-06-19T08:46:57;0.10;;;0.10;;
5918;SDS011;2985;48.142;16.344;2023-06-19T08:52:07;0.10;;;0.10;;
5918;SDS011;2985;48.142;16.344;2023-06-19T08:57:17;0.10;;;0.10;;
5918;SDS011;2985;48.142;16.344;2023-06-19T09:02:36;0.10;;;0.10;;
5918;SDS011;2985;48.142;16.344;2023-06-19T09:07:54;0.10;;;0.10;;
5918;SDS011;2985;48.142;16.344;2023-06-19T09:13:04;0.10;;;0.10;;
5918;SDS011;2985;48.142;16.344;2023-06-19T09:18:14;0.10;;;0.10;;
5918;SDS011;2985;48.142;16.344;2023-06-19T09:23:24;0.10;;;0.10;;
5918;SDS011;2985;48.142;16.344;2023-06-19T09:28:39;0.10;;;0.10;;
5918;SDS011;2985;48.142;16.344;2023-06-19T09:33:49;0.10;;;0.10;;
5918;SDS011;2985;48.142;16.344;2023-06-19T09:38:59;0.00;;;0.00;;
5918;SDS011;2985;48.142;16.344;2023-06-19T09:44:09;0.10;;;0.10;;
5918;SDS011;2985;48.142;16.344;2023-06-19T09:49:22;0.10;;;0.10;;
5918;SDS011;2985;48.142;16.344;2023-06-19T09:54:33;0.10;;;0.10;;
5918;SDS011;2985;48.142;16.344;2023-06-19T09:59:46;0.00;;;0.00;;
5918;SDS011;2985;48.142;16.344;2023-06-19T10:04:57;0.10;;;0.10;;
5918;SDS011;2985;48.142;16.344;2023-06-19T10:10:07;0.00;;;0.00;;
5918;SDS011;2985;48.142;16.344;2023-06-19T10:15:18;0.10;;;0.10;;
5918;SDS011;2985;48.142;16.344;2023-06-19T10:20:32;0.10;;;0.10;;
5918;SDS011;2985;48.142;16.344;2023-06-19T10:25:42;0.10;;;0.10;;
5918;SDS011;2985;48.142;16.344;2023-06-19T10:36:16;0.10;;;0.10;;
5918;SDS011;2985;48.142;16.344;2023-06-19T10:41:26;0.10;;;0.10;;
5918;SDS011;2985;48.142;16.344;2023-06-19T10:46:36;0.10;;;0.10;;
5918;SDS011;2985;48.142;16.344;2023-06-19T10:51:48;0.10;;;0.10;;
5918;SDS011;2985;48.142;16.344;2023-06-19T10:56:57;0.10;;;0.10;;
5918;SDS011;2985;48.142;16.344;2023-06-19T11:02:11;0.10;;;0.10;;
5918;SDS011;2985;48.142;16.344;2023-06-19T11:07:22;0.10;;;0.10;;
5918;SDS011;2985;48.142;16.344;2023-06-19T11:12:32;0.10;;;0.10;;
5918;SDS011;2985;48.142;16.344;2023-06-19T11:17:43;0.10;;;0.10;;
5918;SDS011;2985;48.142;16.344;2023-06-19T11:22:57;0.10;;;0.10;;
5918;SDS011;2985;48.142;16.344;2023-06-19T11:28:14;0.00;;;0.00;;
5918;SDS011;2985;48.142;16.344;2023-06-19T11:33:26;0.10;;;0.10;;
5918;SDS011;2985;48.142;16.344;2023-06-19T11:38:36;0.10;;;0.10;;
5918;SDS011;2985;48.142;16.344;2023-06-19T11:49:07;0.10;;;0.10;;
5918;SDS011;2985;48.142;16.344;2023-06-19T11:54:17;0.10;;;0.10;;
5918;SDS011;2985;48.142;16.344;2023-06-19T11:59:27;0.10;;;0.10;;
5918;SDS011;2985;48.142;16.344;2023-06-19T12:04:39;0.10;;;0.10;;
5918;SDS011;2985;48.142;16.344;2023-06-19T12:09:48;0.10;;;0.10;;
5918;SDS011;2985;48.142;16.344;2023-06-19T12:14:58;0.10;;;0.10;;
5918;SDS011;2985;48.142;16.344;2023-06-19T12:20:08;0.10;;;0.10;;
5918;SDS011;2985;48.142;16.344;2023-06-19T12:25:18;0.10;;;0.10;;
5918;SDS011;2985;48.142;16.344;2023-06-19T12:30:28;0.10;;;0.10;;
5918;SDS011;2985;48.142;16.344;2023-06-19T12:35:39;0.10;;;0.10;;
5918;SDS011;2985;48.142;16.344;2023-06-19T12:40:49;0.10;;;0.10;;
5918;SDS011;2985;48.142;16.344;2023-06-19T12:45:59;0.10;;;0.10;;
5918;SDS011;2985;48.142;16.344;2023-06-19T12:51:09;0.10;;;0.10;;
5918;SDS011;2985;48.142;16.344;2023-06-19T12:56:19;0.10;;;0.10;;
5918;SDS011;2985;48.142;16.344;2023-06-19T13:01:28;0.10;;;0.10;;
5918;SDS011;2985;48.142;16.344;2023-06-19T13:06:38;0.10;;;0.10;;
5918;SDS011;2985;48.142;16.344;2023-06-19T13:11:48;0.10;;;0.10;;
5918;SDS011;2985;48.142;16.344;2023-06-19T13:16:58;0.10;;;0.10;;
5918;SDS011;2985;48.142;16.344;2023-06-19T13:22:09;0.10;;;0.10;;
5918;SDS011;2985;48.142;16.344;2023-06-19T13:27:19;0.10;;;0.10;;
5918;SDS011;2985;48.142;16.344;2023-06-19T13:32:29;0.10;;;0.10;;
5918;SDS011;2985;48.142;16.344;2023-06-19T13:37:39;0.10;;;0.10;;
5918;SDS011;2985;48.142;16.344;2023-06-19T13:42:48;0.10;;;0.10;;
5918;SDS011;2985;48.142;16.344;2023-06-19T13:47:58;0.10;;;0.10;;
5918;SDS011;2985;48.142;16.344;2023-06-19T13:53:08;0.10;;;0.10;;
5918;SDS011;2985;48.142;16.344;2023-06-19T13:58:17;0.10;;;0.10;;
5918;SDS011;2985;48.142;16.344;2023-06-19T14:03:27;0.10;;;0.10;;
5918;SDS011;2985;48.142;16.344;2023-06-19T14:08:37;0.10;;;0.10;;
5918;SDS011;2985;48.142;16.344;2023-06-19T14:13:48;0.10;;;0.10;;
5918;SDS011;2985;48.142;16.344;2023-06-19T14:18:58;0.10;;;0.10;;
5918;SDS011;2985;48.142;16.344;2023-06-19T14:24:08;0.10;;;0.10;;
5918;SDS011;2985;48.142;16.344;2023-06-19T14:29:18;0.10;;;0.10;;
5918;SDS011;2985;48.142;16.344;2023-06-19T14:34:29;0.10;;;0.10;;
5918;SDS011;2985;48.142;16.344;2023-06-19T14:39:38;0.20;;;0.20;;
5918;SDS011;2985;48.142;16.344;2023-06-19T14:44:48;0.30;;;0.30;;
5918;SDS011;2985;48.142;16.344;2023-06-19T14:49:57;0.30;;;0.30;;
5918;SDS011;2985;48.142;16.344;2023-06-19T14:55:07;0.40;;;0.40;;
5918;SDS011;2985;48.142;16.344;2023-06-19T15:00:17;0.40;;;0.40;;
5918;SDS011;2985;48.142;16.344;2023-06-19T15:05:28;0.40;;;0.40;;
5918;SDS011;2985;48.142;16.344;2023-06-19T15:10:37;0.40;;;0.40;;
5918;SDS011;2985;48.142;16.344;2023-06-19T15:15:47;0.30;;;0.30;;
5918;SDS011;2985;48.142;16.344;2023-06-19T15:20:59;0.20;;;0.20;;
5918;SDS011;2985;48.142;16.344;2023-06-19T15:26:09;0.20;;;0.20;;
5918;SDS011;2985;48.142;16.344;2023-06-19T15:31:22;0.20;;;0.20;;
5918;SDS011;2985;48.142;16.344;2023-06-19T15:36:32;0.20;;;0.20;;
5918;SDS011;2985;48.142;16.344;2023-06-19T15:41:43;0.17;;;0.17;;
5918;SDS011;2985;48.142;16.344;2023-06-19T15:46:56;0.30;;;0.30;;
5918;SDS011;2985;48.142;16.344;2023-06-19T15:52:06;0.30;;;0.30;;
5918;SDS011;2985;48.142;16.344;2023-06-19T15:57:16;0.20;;;0.20;;
5918;SDS011;2985;48.142;16.344;2023-06-19T16:02:25;0.10;;;0.10;;
5918;SDS011;2985;48.142;16.344;2023-06-19T16:07:35;0.20;;;0.20;;
5918;SDS011;2985;48.142;16.344;2023-06-19T16:12:45;0.10;;;0.10;;
5918;SDS011;2985;48.142;16.344;2023-06-19T16:17:55;0.10;;;0.10;;
5918;SDS011;2985;48.142;16.344;2023-06-19T16:23:05;0.10;;;0.10;;
5918;SDS011;2985;48.142;16.344;2023-06-19T16:28:14;0.10;;;0.10;;
5918;SDS011;2985;48.142;16.344;2023-06-19T16:33:24;0.10;;;0.10;;
5918;SDS011;2985;48.142;16.344;2023-06-19T16:38:34;0.10;;;0.10;;
5918;SDS011;2985;48.142;16.344;2023-06-19T16:43:43;0.10;;;0.10;;
5918;SDS011;2985;48.142;16.344;2023-06-19T16:48:53;0.10;;;0.10;;
5918;SDS011;2985;48.142;16.344;2023-06-19T16:54:03;0.10;;;0.10;;
5918;SDS011;2985;48.142;16.344;2023-06-19T16:59:12;0.08;;;0.08;;
5918;SDS011;2985;48.142;16.344;2023-06-19T17:04:22;0.10;;;0.10;;
5918;SDS011;2985;48.142;16.344;2023-06-19T17:09:31;0.10;;;0.10;;
5918;SDS011;2985;48.142;16.344;2023-06-19T17:14:41;0.03;;;0.03;;
5918;SDS011;2985;48.142;16.344;2023-06-19T17:19:51;0.10;;;0.10;;
5918;SDS011;2985;48.142;16.344;2023-06-19T17:25:02;0.10;;;0.10;;
5918;SDS011;2985;48.142;16.344;2023-06-19T17:30:12;0.10;;;0.10;;
5918;SDS011;2985;48.142;16.344;2023-06-19T17:35:21;0.10;;;0.10;;
5918;SDS011;2985;48.142;16.344;2023-06-19T17:40:33;0.10;;;0.10;;
5918;SDS011;2985;48.142;16.344;2023-06-19T17:45:42;0.10;;;0.10;;
5918;SDS011;2985;48.142;16.344;2023-06-19T17:50:52;0.10;;;0.10;;
5918;SDS011;2985;48.142;16.344;2023-06-19T17:56:02;0.10;;;0.10;;
5918;SDS011;2985;48.142;16.344;2023-06-19T18:01:13;0.10;;;0.10;;
5918;SDS011;2985;48.142;16.344;2023-06-19T18:06:23;0.00;;;0.00;;
5918;SDS011;2985;48.142;16.344;2023-06-19T18:11:33;0.00;;;0.00;;
5918;SDS011;2985;48.142;16.344;2023-06-19T18:16:43;0.00;;;0.00;;
5918;SDS011;2985;48.142;16.344;2023-06-19T18:21:52;0.00;;;0.00;;
5918;SDS011;2985;48.142;16.344;2023-06-19T18:27:02;0.00;;;0.00;;
5918;SDS011;2985;48.142;16.344;2023-06-19T18:32:12;0.10;;;0.10;;
5918;SDS011;2985;48.142;16.344;2023-06-19T18:37:21;0.00;;;0.00;;
5918;SDS011;2985;48.142;16.344;2023-06-19T18:42:31;0.00;;;0.00;;
5918;SDS011;2985;48.142;16.344;2023-06-19T18:47:41;0.10;;;0.10;;
5918;SDS011;2985;48.142;16.344;2023-06-19T18:52:50;0.10;;;0.10;;
5918;SDS011;2985;48.142;16.344;2023-06-19T18:58:00;0.00;;;0.00;;
5918;SDS011;2985;48.142;16.344;2023-06-19T19:03:10;0.00;;;0.00;;
5918;SDS011;2985;48.142;16.344;2023-06-19T19:08:19;0.10;;;0.10;;
5918;SDS011;2985;48.142;16.344;2023-06-19T19:13:29;0.10;;;0.10;;
5918;SDS011;2985;48.142;16.344;2023-06-19T19:18:39;0.10;;;0.10;;
5918;SDS011;2985;48.142;16.344;2023-06-19T19:23:49;0.10;;;0.10;;
5918;SDS011;2985;48.142;16.344;2023-06-19T19:28:59;0.00;;;0.00;;
5918;SDS011;2985;48.142;16.344;2023-06-19T19:34:08;0.10;;;0.10;;
5918;SDS011;2985;48.142;16.344;2023-06-19T19:39:18;0.10;;;0.10;;
5918;SDS011;2985;48.142;16.344;2023-06-19T19:44:28;0.00;;;0.00;;
5918;SDS011;2985;48.142;16.344;2023-06-19T19:49:38;0.00;;;0.00;;
5918;SDS011;2985;48.142;16.344;2023-06-19T19:54:47;0.10;;;0.10;;
5918;SDS011;2985;48.142;16.344;2023-06-19T19:59:57;0.00;;;0.00;;
5918;SDS011;2985;48.142;16.344;2023-06-19T20:05:07;0.10;;;0.10;;
5918;SDS011;2985;48.142;16.344;2023-06-19T20:10:17;0.00;;;0.00;;
5918;SDS011;2985;48.142;16.344;2023-06-19T20:15:26;0.00;;;0.00;;
5918;SDS011;2985;48.142;16.344;2023-06-19T20:20:36;0.10;;;0.10;;
5918;SDS011;2985;48.142;16.344;2023-06-19T20:25:46;0.00;;;0.00;;
5918;SDS011;2985;48.142;16.344;2023-06-19T20:30:56;0.10;;;0.10;;
5918;SDS011;2985;48.142;16.344;2023-06-19T20:36:05;0.10;;;0.10;;
5918;SDS011;2985;48.142;16.344;2023-06-19T20:41:15;0.00;;;0.00;;
5918;SDS011;2985;48.142;16.344;2023-06-19T20:46:25;0.10;;;0.10;;
5918;SDS011;2985;48.142;16.344;2023-06-19T20:51:35;0.10;;;0.10;;
5918;SDS011;2985;48.142;16.344;2023-06-19T20:56:48;0.10;;;0.10;;
5918;SDS011;2985;48.142;16.344;2023-06-19T21:01:58;0.10;;;0.10;;
5918;SDS011;2985;48.142;16.344;2023-06-19T21:07:08;0.10;;;0.10;;
5918;SDS011;2985;48.142;16.344;2023-06-19T21:12:18;0.10;;;0.10;;
5918;SDS011;2985;48.142;16.344;2023-06-19T21:17:28;0.10;;;0.10;;
5918;SDS011;2985;48.142;16.344;2023-06-19T21:22:38;0.10;;;0.10;;
5918;SDS011;2985;48.142;16.344;2023-06-19T21:27:48;0.10;;;0.10;;
5918;SDS011;2985;48.142;16.344;2023-06-19T21:32:57;0.10;;;0.10;;
5918;SDS011;2985;48.142;16.344;2023-06-19T21:38:07;0.00;;;0.00;;
5918;SDS011;2985;48.142;16.344;2023-06-19T21:43:17;0.10;;;0.10;;
5918;SDS011;2985;48.142;16.344;2023-06-19T21:48:26;0.10;;;0.10;;
5918;SDS011;2985;48.142;16.344;2023-06-19T21:53:37;0.10;;;0.10;;
5918;SDS011;2985;48.142;16.344;2023-06-19T21:58:47;0.10;;;0.10;;
5918;SDS011;2985;48.142;16.344;2023-06-19T22:03:57;0.10;;;0.10;;
5918;SDS011;2985;48.142;16.344;2023-06-19T22:09:07;0.10;;;0.10;;
5918;SDS011;2985;48.142;16.344;2023-06-19T22:14:16;0.10;;;0.10;;
5918;SDS011;2985;48.142;16.344;2023-06-19T22:19:26;0.10;;;0.10;;
5918;SDS011;2985;48.142;16.344;2023-06-19T22:24:36;0.10;;;0.10;;
5918;SDS011;2985;48.142;16.344;2023-06-19T22:29:45;0.00;;;0.00;;
5918;SDS011;2985;48.142;16.344;2023-06-19T22:34:55;0.10;;;0.10;;
5918;SDS011;2985;48.142;16.344;2023-06-19T22:40:05;0.00;;;0.00;;
5918;SDS011;2985;48.142;16.344;2023-06-19T22:45:18;0.10;;;0.10;;
5918;SDS011;2985;48.142;16.344;2023-06-19T22:50:28;0.10;;;0.10;;
5918;SDS011;2985;48.142;16.344;2023-06-19T22:55:38;0.10;;;0.10;;
5918;SDS011;2985;48.142;16.344;2023-06-19T23:00:48;0.10;;;0.10;;
5918;SDS011;2985;48.142;16.344;2023-06-19T23:05:58;0.10;;;0.10;;
5918;SDS011;2985;48.142;16.344;2023-06-19T23:11:08;0.10;;;0.10;;
5918;SDS011;2985;48.142;16.344;2023-06-19T23:16:17;0.10;;;0.10;;
5918;SDS011;2985;48.142;16.344;2023-06-19T23:21:27;0.10;;;0.10;;
5918;SDS011;2985;48.142;16.344;2023-06-19T23:26:40;0.10;;;0.10;;
5918;SDS011;2985;48.142;16.344;2023-06-19T23:31:50;0.10;;;0.10;;
5918;SDS011;2985;48.142;16.344;2023-06-19T23:36:59;0.10;;;0.10;;
5918;SDS011;2985;48.142;16.344;2023-06-19T23:42:09;0.10;;;0.10;;
5918;SDS011;2985;48.142;16.344;2023-06-19T23:47:20;0.10;;;0.10;;
5918;SDS011;2985;48.142;16.344;2023-06-19T23:52:30;0.00;;;0.00;;
5918;SDS011;2985;48.142;16.344;2023-06-19T23:57:39;0.10;;;0.10;;
